Terminal Aerodrome Forecast
Issued by NWS

Home | Current Version | Previous Version | Text Only | Print | Product List | Glossary On
Versions: 1 2 3 4 5 6 7 8 9 10 11 12 13 14 15
342
FTUS43 KICT 231400 AAA
TAFCNU
TAF AMD
KCNU 231400Z 2314/2412 07007KT P6SM SCT250
     FM231630 18012KT P6SM BKN250
     FM232000 19015G22KT P6SM BKN250
     FM240000 19011KT P6SM SKC
     FM240700 32017G24KT P6SM SCT015 BKN025=

USA.gov is the U.S. government's official web portal to all federal, state and local government web resources and services.